LOG8K EGPF-EGPI

Flight info

Callsign LOG8K
Flight time N/A
Altitude 10000
Route ROBBO
Aircraft DHC6/L-SDFGR/C

Departure

Time 2026-04-28 14:21
Airport Glasgow Airport (EGPF)

Arrival

Time N/A
Airport Islay Airport (EGPI)
Time Latitude Longitude Altitude Speed Heading
2026-04-28 13:54 55.86543 -4.43011 28 ft 0 kts 254°
2026-04-28 14:09 55.86543 -4.43012 28 ft 0 kts 254°
2026-04-28 14:11 55.86543 -4.43011 28 ft 0 kts 254°
2026-04-28 14:13 55.86545 -4.43001 -481 ft 2 kts 254°
2026-04-28 14:13 55.86550 -4.42973 28 ft 2 kts 254°
2026-04-28 14:13 55.86554 -4.42945 28 ft 2 kts 254°
2026-04-28 14:14 55.86554 -4.42911 28 ft 3 kts 339°
2026-04-28 14:14 55.86550 -4.42911 28 ft 0 kts 14°
2026-04-28 14:14 55.86561 -4.42904 28 ft 7 kts 18°
2026-04-28 14:15 55.86670 -4.42932 28 ft 24 kts 344°
2026-04-28 14:15 55.86835 -4.43025 28 ft 12 kts 322°
2026-04-28 14:15 55.86834 -4.43119 28 ft 8 kts 253°
2026-04-28 14:15 55.86817 -4.43219 28 ft 9 kts 253°
2026-04-28 14:16 55.86796 -4.43352 28 ft 18 kts 253°
2026-04-28 14:16 55.86744 -4.43669 28 ft 28 kts 253°
2026-04-28 14:16 55.86627 -4.43953 28 ft 30 kts 226°
2026-04-28 14:16 55.86474 -4.44240 28 ft 33 kts 226°
2026-04-28 14:17 55.86313 -4.44539 28 ft 29 kts 226°
2026-04-28 14:17 55.86247 -4.44710 28 ft 6 kts 308°
2026-04-28 14:17 55.86274 -4.44765 28 ft 6 kts 311°
2026-04-28 14:17 55.86315 -4.44833 28 ft 14 kts 318°
2026-04-28 14:18 55.86391 -4.44843 28 ft 9 kts 50°
2026-04-28 14:18 55.86519 -4.44595 28 ft 59 kts 47°
2026-04-28 14:18 55.86918 -4.43852 90 ft 96 kts 46°
2026-04-28 14:18 55.87415 -4.42919 201 ft 119 kts 47°
2026-04-28 14:19 55.88023 -4.41769 307 ft 133 kts 47°
2026-04-28 14:19 55.88671 -4.40538 451 ft 139 kts 47°
2026-04-28 14:19 55.88961 -4.39992 507 ft 142 kts 47°
2026-04-28 14:19 55.89664 -4.38679 513 ft 151 kts 47°
2026-04-28 14:20 55.89728 -4.38559 519 ft 151 kts 47°
2026-04-28 14:21 55.90264 -4.37560 440 ft 158 kts 46°
2026-04-28 14:21 55.90819 -4.36506 364 ft 163 kts 47°
2026-04-28 14:21 55.91243 -4.35703 357 ft 161 kts 46°
2026-04-28 14:21 55.91980 -4.34360 799 ft 132 kts 47°
2026-04-28 14:22 55.92577 -4.33195 1274 ft 123 kts 50°
2026-04-28 14:22 55.93138 -4.32094 1713 ft 116 kts 49°
2026-04-28 14:22 55.93671 -4.31053 2162 ft 112 kts 50°
2026-04-28 14:22 55.94326 -4.30410 2594 ft 115 kts
2026-04-28 14:23 55.95151 -4.30433 2829 ft 125 kts 359°
2026-04-28 14:23 55.95765 -4.31391 3265 ft 128 kts 283°
2026-04-28 14:23 55.95840 -4.32939 3599 ft 124 kts 284°
2026-04-28 14:23 55.96085 -4.34477 3786 ft 143 kts 292°
2026-04-28 14:24 55.96543 -4.36320 3574 ft 178 kts 300°
2026-04-28 14:24 55.97081 -4.38371 3760 ft 175 kts 285°
2026-04-28 14:24 55.97589 -4.40020 4344 ft 143 kts 316°
2026-04-28 14:24 55.98269 -4.41377 4512 ft 153 kts 315°
2026-04-28 14:25 55.98852 -4.42931 4831 ft 148 kts 302°
2026-04-28 14:25 55.99498 -4.44246 5168 ft 137 kts 322°
2026-04-28 14:25 56.00286 -4.45386 5209 ft 156 kts 329°
2026-04-28 14:25 56.01281 -4.46447 5067 ft 174 kts 338°
2026-04-28 14:26 56.02397 -4.47309 5134 ft 172 kts 342°
2026-04-28 14:26 56.03466 -4.48137 5403 ft 160 kts 340°
2026-04-28 14:26 56.04619 -4.49143 4253 ft 203 kts 320°
2026-04-28 14:26 56.04792 -4.51448 3665 ft 204 kts 233°
2026-04-28 14:27 56.03663 -4.52717 3360 ft 191 kts 186°
2026-04-28 14:27 56.02693 -4.51691 1777 ft 152 kts 108°
2026-04-28 14:27 56.02408 -4.50083 543 ft 136 kts 116°
2026-04-28 14:27 56.01701 -4.49357 296 ft 100 kts 160°
2026-04-28 14:28 56.01332 -4.49118 370 ft 0 kts 157°
2026-04-28 14:28 56.01333 -4.49119 364 ft 0 kts 155°
2026-04-28 14:28 55.86543 -4.43011 28 ft 0 kts 254°